Time;durP1;ratioP1;P1;durP2;ratioP2;P2;SDS_P1;SDS_P2;PMS_P1;PMS_P2;Temp;Humidity;BMP_temperature;BMP_pressure;BME280_temperature;BME280_humidity;BME280_pressure;Samples;Min_cycle;Max_cycle;Signal;HPM_P1;HPM_P2
2023/01/03 00:05:25;;;;;;;76.25;40.03;;;;;;;3.15;100.00;99644.11;3994240;86;21118;-88
2023/01/03 00:17:52;;;;;;;76.67;40.00;;;;;;;3.01;100.00;99652.32;3959918;88;21064;-88
2023/01/03 00:23:55;;;;;;;70.22;37.30;;;;;;;2.97;100.00;99658.12;3897185;88;21087;-87
2023/01/03 00:29:59;;;;;;;67.32;36.40;;;;;;;2.99;100.00;99653.75;3959927;86;21571;-88
2023/01/03 00:36:06;;;;;;;64.37;36.23;;;;;;;3.03;100.00;99652.82;3971660;88;21003;-88
2023/01/03 00:42:07;;;;;;;63.83;32.50;;;;;;;2.99;100.00;99674.81;3968693;86;21011;-87
2023/01/03 00:48:09;;;;;;;79.22;38.60;;;;;;;3.08;100.00;99668.92;3945840;88;21625;-87
2023/01/03 00:54:13;;;;;;;78.25;37.53;;;;;;;3.51;100.00;99671.83;3935162;88;22197;-88
2023/01/03 01:00:15;;;;;;;67.35;33.58;;;;;;;3.70;100.00;99664.27;3970698;87;21091;-88
2023/01/03 01:06:25;;;;;;;67.92;36.17;;;;;;;3.85;100.00;99676.59;3939786;88;21067;-89
2023/01/03 01:12:27;;;;;;;79.42;41.02;;;;;;;3.86;100.00;99680.34;3995044;88;21607;-88
2023/01/03 01:18:29;;;;;;;78.52;42.03;;;;;;;3.89;100.00;99687.02;3989124;88;21074;-88
2023/01/03 01:24:31;;;;;;;68.10;35.58;;;;;;;3.78;100.00;99696.00;3981663;88;21047;-88
2023/01/03 01:30:33;;;;;;;62.27;35.10;;;;;;;3.58;100.00;99692.50;3986328;88;21031;-88
2023/01/03 01:36:36;;;;;;;79.75;40.50;;;;;;;3.34;100.00;99682.58;3989585;86;21132;-89
2023/01/03 01:49:03;;;;;;;125.25;65.67;;;;;;;2.87;100.00;99698.92;3988441;87;22538;-88
2023/01/03 01:55:09;;;;;;;128.53;69.03;;;;;;;2.55;100.00;99709.16;4080865;85;21086;-88
2023/01/03 02:01:15;;;;;;;125.00;64.40;;;;;;;2.25;100.00;99700.38;4083406;85;21917;-88
2023/01/03 02:07:19;;;;;;;128.20;64.30;;;;;;;2.02;100.00;99702.77;4089560;84;21030;-88
2023/01/03 02:13:53;;;;;;;132.97;66.77;;;;;;;1.84;100.00;99698.26;4088645;85;21091;-89
2023/01/03 02:20:37;;;;;;;118.65;60.55;;;;;;;1.74;100.00;99688.46;3958219;89;21132;-89
2023/01/03 02:27:18;;;;;;;113.42;61.45;;;;;;;1.75;100.00;99689.27;4099698;84;21535;-88
2023/01/03 02:33:47;;;;;;;108.92;58.10;;;;;;;1.68;100.00;99691.02;4061918;85;21080;-88
2023/01/03 02:39:56;;;;;;;122.17;63.20;;;;;;;1.62;100.00;99692.22;4083682;85;21527;-88
2023/01/03 02:46:30;;;;;;;113.75;58.08;;;;;;;1.65;100.00;99710.50;4074868;84;21038;-88
2023/01/03 02:52:31;;;;;;;116.60;60.60;;;;;;;1.61;100.00;99717.61;4084139;84;21057;-88
2023/01/03 02:58:36;;;;;;;94.37;50.70;;;;;;;1.55;100.00;99717.47;4076733;85;21090;-89
2023/01/03 03:04:41;;;;;;;106.83;53.45;;;;;;;1.44;100.00;99714.13;4030408;86;21580;-87
2023/01/03 03:17:15;;;;;;;109.22;56.15;;;;;;;1.38;100.00;99712.63;3995688;86;21130;-88
2023/01/03 03:29:40;;;;;;;111.52;57.62;;;;;;;1.40;100.00;99733.91;4049375;85;21692;-89
2023/01/03 03:36:07;;;;;;;124.42;60.30;;;;;;;1.44;100.00;99751.13;4033544;86;21041;-89
2023/01/03 03:55:53;;;;;;;112.40;58.08;;;;;;;1.54;100.00;99781.42;4009160;86;21040;-88
2023/01/03 04:01:56;;;;;;;106.85;53.45;;;;;;;1.72;100.00;99806.75;4028531;85;21516;-89
2023/01/03 04:07:58;;;;;;;104.38;53.52;;;;;;;1.87;100.00;99809.16;4021289;85;21095;-88
2023/01/03 04:13:59;;;;;;;79.35;40.98;;;;;;;2.02;100.00;99810.78;4038339;86;20995;-88
2023/01/03 04:20:01;;;;;;;74.80;39.78;;;;;;;2.35;100.00;99824.45;4041189;85;21031;-88
2023/01/03 04:26:02;;;;;;;69.72;36.13;;;;;;;2.81;100.00;99824.53;4030121;86;21746;-88
2023/01/03 04:32:04;;;;;;;63.55;34.00;;;;;;;3.23;100.00;99819.81;3946148;87;21099;-89
2023/01/03 04:38:07;;;;;;;62.38;34.85;;;;;;;3.46;100.00;99827.59;3913183;88;21092;-88
2023/01/03 04:44:08;;;;;;;48.02;25.82;;;;;;;3.63;100.00;99833.70;3964686;87;21586;-88
2023/01/03 04:50:10;;;;;;;40.35;23.18;;;;;;;3.80;100.00;99838.67;3943735;87;21053;-87
2023/01/03 04:56:11;;;;;;;44.93;25.00;;;;;;;4.08;100.00;99849.58;3904002;89;21205;-88
2023/01/03 05:02:13;;;;;;;41.10;24.47;;;;;;;4.47;100.00;99852.84;4004410;86;21087;-87
2023/01/03 05:08:14;;;;;;;45.15;23.02;;;;;;;4.63;100.00;99847.23;4002205;85;21971;-88
2023/01/03 05:14:16;;;;;;;42.80;23.18;;;;;;;4.78;100.00;99853.56;4038485;85;21071;-88
2023/01/03 05:26:40;;;;;;;42.48;25.55;;;;;;;4.84;100.00;99860.43;4026563;85;21069;-88
2023/01/03 05:32:41;;;;;;;47.95;24.20;;;;;;;4.86;100.00;99877.20;4006070;85;21077;-88
2023/01/03 05:38:43;;;;;;;42.95;23.40;;;;;;;4.96;100.00;99883.70;4032998;85;21074;-88
2023/01/03 05:44:44;;;;;;;45.05;24.60;;;;;;;4.99;100.00;99893.11;4047508;85;21039;-89
2023/01/03 05:50:46;;;;;;;42.17;24.12;;;;;;;4.93;100.00;99893.83;4046448;85;21074;-89
2023/01/03 05:56:49;;;;;;;39.63;21.90;;;;;;;4.88;100.00;99913.51;4061585;85;21042;-89
2023/01/03 06:02:54;;;;;;;54.90;26.77;;;;;;;4.80;100.00;99920.52;4057750;85;21082;-90
2023/01/03 06:08:55;;;;;;;51.55;26.27;;;;;;;4.75;100.00;99920.65;3961268;87;21634;-89
2023/01/03 06:14:57;;;;;;;61.60;29.50;;;;;;;4.72;100.00;99931.58;3914747;90;21403;-89
2023/01/03 06:20:58;;;;;;;56.48;29.90;;;;;;;4.71;100.00;99940.81;3943094;89;21895;-89
2023/01/03 06:27:00;;;;;;;53.55;27.80;;;;;;;4.76;100.00;99942.61;3944035;87;21946;-89
2023/01/03 06:33:01;;;;;;;49.75;24.87;;;;;;;4.76;100.00;99949.39;3957564;87;21000;-89
2023/01/03 06:39:03;;;;;;;50.88;26.25;;;;;;;4.72;100.00;99971.46;3945270;87;21032;-90
2023/01/03 06:57:48;;;;;;;53.50;27.02;;;;;;;4.51;100.00;100027.36;3945567;87;21081;-88
2023/01/03 07:03:49;;;;;;;58.87;29.30;;;;;;;4.46;100.00;100020.13;3931214;88;21100;-89
2023/01/03 07:09:58;;;;;;;57.27;29.82;;;;;;;4.53;100.00;100023.22;3938985;89;21119;-88
2023/01/03 07:16:17;;;;;;;55.30;30.27;;;;;;;4.61;100.00;100031.96;3949564;88;21080;-89
2023/01/03 07:22:19;;;;;;;51.90;28.27;;;;;;;4.76;100.00;100022.63;3983647;87;21016;-90
2023/01/03 07:28:20;;;;;;;54.45;29.27;;;;;;;4.78;100.00;100035.31;3990931;87;21112;-88
2023/01/03 07:34:22;;;;;;;60.28;30.37;;;;;;;4.80;100.00;100048.02;4031691;86;21030;-90
2023/01/03 07:40:23;;;;;;;54.30;30.10;;;;;;;4.77;100.00;100052.16;3998387;85;21023;-89
2023/01/03 07:46:27;;;;;;;61.80;31.95;;;;;;;4.77;100.00;100058.94;4027765;87;21119;-89
2023/01/03 07:52:31;;;;;;;55.20;30.25;;;;;;;4.76;100.00;100057.89;3947424;87;21093;-88
2023/01/03 07:58:33;;;;;;;58.70;30.35;;;;;;;4.80;100.00;100065.64;3932639;88;21418;-89
2023/01/03 08:04:38;;;;;;;61.88;32.15;;;;;;;5.00;100.00;100074.60;3958919;88;21543;-90
2023/01/03 08:16:59;;;;;;;60.85;30.55;;;;;;;5.14;100.00;100096.23;4026246;86;21054;-89
2023/01/03 08:23:02;;;;;;;55.78;30.82;;;;;;;5.10;100.00;100104.74;4053766;85;21030;-89
2023/01/03 08:29:04;;;;;;;60.75;31.50;;;;;;;5.05;100.00;100103.52;3963618;87;21133;-89
2023/01/03 08:35:07;;;;;;;62.17;35.33;;;;;;;5.07;100.00;100112.16;3974292;86;21564;-89
2023/01/03 08:41:10;;;;;;;75.25;35.60;;;;;;;5.28;100.00;100110.52;3952974;86;21040;-89
2023/01/03 08:47:13;;;;;;;62.75;33.90;;;;;;;5.49;100.00;100112.34;3942537;88;21628;-89
2023/01/03 08:53:15;;;;;;;56.35;31.55;;;;;;;5.80;100.00;100120.41;3968119;86;21576;-88
2023/01/03 08:59:16;;;;;;;59.58;33.25;;;;;;;6.05;100.00;100117.78;3972492;86;21008;-88
2023/01/03 09:05:18;;;;;;;56.58;32.08;;;;;;;6.65;100.00;100115.63;3959923;88;21619;-90
2023/01/03 09:11:19;;;;;;;49.10;27.95;;;;;;;7.22;100.00;100116.38;3994273;86;21576;-89
2023/01/03 09:17:21;;;;;;;42.30;24.27;;;;;;;7.85;100.00;100118.17;4008444;87;21076;-90
2023/01/03 09:23:22;;;;;;;48.70;24.75;;;;;;;8.37;100.00;100124.91;3996549;87;21091;-89
2023/01/03 09:29:23;;;;;;;48.35;22.60;;;;;;;8.53;100.00;100134.10;3927537;89;21319;-89
2023/01/03 09:35:25;;;;;;;32.20;20.25;;;;;;;8.56;100.00;100123.07;4054281;86;21035;-88
2023/01/03 09:41:28;;;;;;;32.95;19.55;;;;;;;9.02;100.00;100126.31;4099483;85;21043;-89
2023/01/03 09:47:35;;;;;;;33.58;19.37;;;;;;;9.39;100.00;100123.91;4096351;84;21130;-90
2023/01/03 10:06:41;;;;;;;35.65;18.52;;;;;;;9.70;100.00;100112.97;4080695;84;21067;-90
2023/01/03 10:13:04;;;;;;;26.68;16.20;;;;;;;9.39;100.00;100121.73;4089425;85;21081;-91
2023/01/03 10:19:17;;;;;;;30.30;16.10;;;;;;;9.21;100.00;100125.23;4086509;84;21031;-91
2023/01/03 10:25:22;;;;;;;25.23;13.93;;;;;;;9.62;100.00;100128.91;4057212;86;20988;-91
2023/01/03 10:31:50;;;;;;;31.97;16.93;;;;;;;10.06;100.00;100127.43;4095575;84;21033;-92
2023/01/03 10:37:56;;;;;;;30.43;15.93;;;;;;;10.27;100.00;100117.73;4091988;84;21077;-93
2023/01/03 10:44:00;;;;;;;28.73;13.62;;;;;;;10.67;100.00;100113.04;4101126;84;21037;-92
2023/01/03 10:50:05;;;;;;;20.12;11.48;;;;;;;10.68;100.00;100120.91;4074232;85;21089;-91
2023/01/03 10:56:07;;;;;;;20.08;10.98;;;;;;;10.53;100.00;100120.84;4073045;84;22174;-89
2023/01/03 11:02:17;;;;;;;16.52;9.93;;;;;;;10.36;100.00;100118.39;4090675;85;21061;-91
2023/01/03 11:08:25;;;;;;;17.92;10.68;;;;;;;10.10;100.00;100122.88;4091038;85;21066;-91
2023/01/03 11:14:28;;;;;;;21.05;10.43;;;;;;;10.01;100.00;100117.28;4042790;86;21944;-91
2023/01/03 11:20:47;;;;;;;23.38;12.18;;;;;;;9.97;100.00;100112.28;4009885;86;21092;-92
2023/01/03 11:27:03;;;;;;;23.73;13.72;;;;;;;9.92;100.00;100113.88;4019825;86;20991;-91
2023/01/03 11:33:17;;;;;;;26.25;13.85;;;;;;;9.67;100.00;100115.83;4007613;86;22096;-89
2023/01/03 11:39:40;;;;;;;27.65;14.38;;;;;;;9.58;100.00;100115.71;4014663;86;21077;-90
2023/01/03 11:46:23;;;;;;;24.80;13.45;;;;;;;9.54;100.00;100104.66;4001537;87;21076;-89
2023/01/03 11:52:53;;;;;;;20.08;12.30;;;;;;;9.57;100.00;100097.14;4020617;86;22083;-92
2023/01/03 11:59:21;;;;;;;21.37;12.95;;;;;;;9.51;100.00;100097.95;4001411;86;21601;-90
2023/01/03 12:05:48;;;;;;;19.87;11.30;;;;;;;9.38;100.00;100097.70;4022718;86;21037;-91
2023/01/03 12:12:10;;;;;;;20.27;11.43;;;;;;;9.20;100.00;100103.71;3977355;86;20986;-90
2023/01/03 12:18:47;;;;;;;21.57;12.15;;;;;;;9.08;100.00;100106.43;3963448;87;21588;-91
2023/01/03 12:24:57;;;;;;;;;;;;;;;8.95;100.00;100096.59;3948818;88;21038;-91
2023/01/03 12:31:22;;;;;;;21.42;10.85;;;;;;;8.99;100.00;100093.44;3969968;88;20182;-91
2023/01/03 12:37:30;;;;;;;20.90;10.93;;;;;;;8.98;100.00;100091.27;3949975;88;21072;-90
2023/01/03 12:43:52;;;;;;;21.62;10.95;;;;;;;8.99;100.00;100093.44;3925813;88;21107;-91
2023/01/03 12:50:11;;;;;;;23.20;10.43;;;;;;;9.00;100.00;100090.92;3960995;87;21040;-91
2023/01/03 12:56:33;;;;;;;21.95;10.53;;;;;;;8.89;100.00;100090.56;3911326;88;21048;-91
2023/01/03 13:03:01;;;;;;;16.35;9.15;;;;;;;8.79;100.00;100083.34;3926690;87;21108;-92
2023/01/03 13:09:21;;;;;;;23.95;11.20;;;;;;;8.70;100.00;100079.91;3971866;84;21080;-90
2023/01/03 13:15:30;;;;;;;24.50;12.35;;;;;;;8.52;100.00;100076.54;4084561;85;21014;-89
2023/01/03 13:21:53;;;;;;;22.67;11.30;;;;;;;8.49;100.00;100083.26;4078908;85;20999;-93
2023/01/03 13:28:23;;;;;;;28.92;11.45;;;;;;;8.55;100.00;100086.78;4078023;85;21026;-92
2023/01/03 13:34:33;;;;;;;21.87;10.40;;;;;;;8.54;100.00;100074.28;4053467;84;21516;-90
2023/01/03 13:40:36;;;;;;;21.45;11.18;;;;;;;8.49;100.00;100080.53;4092801;84;21087;-90
2023/01/03 13:46:40;;;;;;;22.32;12.95;;;;;;;8.48;100.00;100085.73;4080049;85;21013;-91
2023/01/03 13:53:11;;;;;;;25.25;10.82;;;;;;;8.42;100.00;100078.34;4075206;85;22005;-90
2023/01/03 13:59:46;;;;;;;22.82;11.05;;;;;;;8.37;100.00;100083.19;4073250;85;21112;-90
2023/01/03 14:06:20;;;;;;;23.25;11.90;;;;;;;8.26;100.00;100081.98;4066593;85;21038;-91
2023/01/03 14:12:45;;;;;;;20.85;11.88;;;;;;;8.11;100.00;100086.66;4046409;85;21143;-92
2023/01/03 14:18:52;;;;;;;23.92;13.58;;;;;;;7.96;100.00;100091.57;4024059;87;21070;-92
2023/01/03 14:24:56;;;;;;;31.42;14.78;;;;;;;7.87;100.00;100099.02;3997720;87;21552;-91
2023/01/03 14:31:04;;;;;;;31.15;15.80;;;;;;;7.83;100.00;100110.33;4034587;85;21974;-92
2023/01/03 14:37:13;;;;;;;43.40;22.52;;;;;;;7.81;100.00;100113.94;4013013;85;21047;-92
2023/01/03 14:43:14;;;;;;;32.78;16.52;;;;;;;7.75;100.00;100113.12;4037880;85;21638;-91
2023/01/03 14:49:33;;;;;;;38.10;20.20;;;;;;;7.64;100.00;100111.89;3951776;87;21152;-91
2023/01/03 14:55:35;;;;;;;50.55;23.90;;;;;;;7.44;100.00;100113.97;4024399;87;21537;-91
2023/01/03 15:01:37;;;;;;;40.45;20.20;;;;;;;7.38;100.00;100112.55;4034273;85;21080;-91
2023/01/03 15:07:42;;;;;;;34.25;19.42;;;;;;;7.29;100.00;100110.43;4028382;86;21951;-90
2023/01/03 15:13:55;;;;;;;32.75;18.17;;;;;;;7.22;100.00;100119.09;4046184;86;21084;-90
2023/01/03 15:19:56;;;;;;;37.40;17.57;;;;;;;7.20;100.00;100125.45;4038027;85;21033;-92
2023/01/03 15:25:58;;;;;;;35.23;19.15;;;;;;;7.22;100.00;100129.22;4048373;86;21360;-91
2023/01/03 15:32:00;;;;;;;35.40;19.62;;;;;;;7.22;100.00;100135.44;4033548;84;21063;-91
2023/01/03 15:38:04;;;;;;;38.23;20.68;;;;;;;7.20;100.00;100132.27;4079753;84;20978;-91
2023/01/03 15:44:09;;;;;;;42.13;20.43;;;;;;;7.19;100.00;100150.27;4082543;84;21580;-90
2023/01/03 15:50:14;;;;;;;45.92;23.32;;;;;;;7.14;100.00;100159.99;4033716;85;21048;-91
2023/01/03 15:56:23;;;;;;;46.45;25.55;;;;;;;7.08;100.00;100169.45;3964963;87;21042;-90
2023/01/03 16:02:24;;;;;;;55.83;30.12;;;;;;;7.00;100.00;100181.94;3922128;88;21592;-90
2023/01/03 16:08:35;;;;;;;56.08;29.05;;;;;;;6.92;100.00;100188.19;3934617;89;20996;-91
2023/01/03 16:14:41;;;;;;;68.72;34.35;;;;;;;6.83;100.00;100196.93;3970803;87;21072;-91
2023/01/03 16:20:43;;;;;;;58.28;30.30;;;;;;;6.71;100.00;100197.33;3957473;88;21030;-91
2023/01/03 16:26:46;;;;;;;62.62;32.08;;;;;;;6.62;100.00;100196.54;4009109;86;21931;-91
2023/01/03 16:32:48;;;;;;;55.08;30.25;;;;;;;6.54;100.00;100204.94;3930765;88;21073;-90
2023/01/03 16:38:50;;;;;;;60.50;34.00;;;;;;;6.52;100.00;100219.96;3944607;87;21036;-91
2023/01/03 16:44:54;;;;;;;54.05;30.75;;;;;;;6.45;100.00;100221.82;3940420;88;20995;-92
2023/01/03 16:50:55;;;;;;;59.75;33.63;;;;;;;6.36;100.00;100227.23;3948758;88;21028;-90
2023/01/03 16:56:57;;;;;;;61.15;33.00;;;;;;;6.24;100.00;100237.94;3945070;87;21063;-91
2023/01/03 17:02:59;;;;;;;62.75;33.45;;;;;;;6.18;100.00;100239.20;3946465;88;21968;-90
2023/01/03 17:09:06;;;;;;;69.00;35.83;;;;;;;6.02;100.00;100249.45;3947050;88;20999;-91
2023/01/03 17:15:08;;;;;;;58.60;34.10;;;;;;;5.91;100.00;100243.50;3973260;87;21060;-91
2023/01/03 17:21:23;;;;;;;62.93;34.67;;;;;;;5.85;100.00;100244.76;3968423;87;21135;-90
2023/01/03 17:27:25;;;;;;;63.02;35.65;;;;;;;5.81;100.00;100247.03;3968740;88;22125;-90
2023/01/03 17:33:31;;;;;;;66.87;36.90;;;;;;;5.72;100.00;100248.88;4040648;86;21148;-91
2023/01/03 17:39:32;;;;;;;73.50;40.03;;;;;;;5.66;100.00;100245.52;4064147;85;21132;-90
2023/01/03 17:52:01;;;;;;;80.30;40.65;;;;;;;5.53;100.00;100257.26;4056559;85;21078;-90
2023/01/03 17:58:06;;;;;;;89.00;45.35;;;;;;;5.46;100.00;100266.42;4046014;85;21629;-91
2023/01/03 18:04:09;;;;;;;101.42;52.08;;;;;;;5.34;100.00;100255.30;4064569;85;21118;-91
2023/01/03 18:10:24;;;;;;;104.20;51.45;;;;;;;5.30;100.00;100250.26;4055662;85;21062;-91
2023/01/03 18:16:28;;;;;;;109.32;53.80;;;;;;;5.27;100.00;100257.67;4097763;86;21635;-90
2023/01/03 18:22:30;;;;;;;94.28;50.52;;;;;;;5.17;100.00;100259.84;4078706;85;21038;-91
2023/01/03 18:28:32;;;;;;;97.12;52.43;;;;;;;5.12;100.00;100264.02;4085102;84;21078;-90
2023/01/03 18:34:34;;;;;;;92.75;50.28;;;;;;;5.04;100.00;100271.00;4086141;85;21015;-90
2023/01/03 18:40:37;;;;;;;93.87;49.75;;;;;;;4.92;100.00;100269.94;3943660;85;9999731;-89
2023/01/03 18:46:39;;;;;;;87.90;45.65;;;;;;;4.75;100.00;100266.50;4079434;85;21131;-90
2023/01/03 18:52:40;;;;;;;75.17;41.65;;;;;;;4.59;100.00;100267.95;4076676;84;21421;-90
2023/01/03 18:58:42;;;;;;;92.72;46.60;;;;;;;4.45;100.00;100268.52;4091019;84;21129;-91
2023/01/03 19:04:43;;;;;;;95.42;49.48;;;;;;;4.32;100.00;100272.08;4025733;86;21094;-89
2023/01/03 19:10:46;;;;;;;82.97;45.30;;;;;;;4.22;100.00;100274.98;4022566;86;21094;-90
2023/01/03 19:16:51;;;;;;;81.80;44.42;;;;;;;4.15;100.00;100267.25;3905500;88;21063;-91
2023/01/03 19:22:53;;;;;;;80.97;43.20;;;;;;;4.19;100.00;100269.62;3943069;88;21051;-91
2023/01/03 19:28:58;;;;;;;93.72;49.18;;;;;;;4.18;100.00;100272.64;3931279;88;21136;-91
2023/01/03 19:35:00;;;;;;;97.97;48.10;;;;;;;4.14;100.00;100282.46;3939975;88;21091;-90
2023/01/03 19:41:02;;;;;;;98.25;50.78;;;;;;;4.07;100.00;100290.98;3940583;88;21115;-91
2023/01/03 19:47:07;;;;;;;108.57;58.10;;;;;;;4.06;100.00;100292.64;4007169;87;21618;-90
2023/01/03 19:53:08;;;;;;;108.03;57.55;;;;;;;4.01;100.00;100292.19;3995187;87;21059;-90
2023/01/03 19:59:33;;;;;;;117.93;58.55;;;;;;;4.05;100.00;100289.69;4010184;86;21111;-91
2023/01/03 20:05:35;;;;;;;132.37;66.57;;;;;;;4.06;100.00;100288.58;3942204;88;21000;-90
2023/01/03 20:11:36;;;;;;;117.10;60.78;;;;;;;4.03;100.00;100286.47;3948009;87;21975;-90
2023/01/03 20:17:38;;;;;;;105.58;55.63;;;;;;;4.03;100.00;100283.77;4018064;86;21019;-90
2023/01/03 20:23:44;;;;;;;123.85;64.35;;;;;;;4.09;100.00;100289.33;4011754;86;21127;-90
2023/01/03 20:29:45;;;;;;;120.00;62.30;;;;;;;4.13;100.00;100293.88;4010422;87;21131;-92
2023/01/03 20:35:47;;;;;;;112.77;62.75;;;;;;;4.17;100.00;100307.06;4004991;87;21357;-90
2023/01/03 20:41:49;;;;;;;122.92;62.38;;;;;;;4.20;100.00;100302.39;4008976;87;21047;-90
2023/01/03 20:47:53;;;;;;;111.52;62.85;;;;;;;4.27;100.00;100307.41;4003468;87;21499;-90
2023/01/03 20:53:54;;;;;;;109.87;60.90;;;;;;;4.29;100.00;100305.21;4007770;86;21014;-91
2023/01/03 20:59:55;;;;;;;122.95;67.55;;;;;;;4.30;100.00;100306.81;4035835;86;21046;-91
2023/01/03 21:05:57;;;;;;;111.22;60.40;;;;;;;4.30;100.00;100307.63;4039211;86;21019;-90
2023/01/03 21:11:59;;;;;;;118.60;64.50;;;;;;;4.33;100.00;100312.98;4055445;86;21026;-90
2023/01/03 21:18:01;;;;;;;115.30;62.48;;;;;;;4.26;100.00;100310.67;4039717;86;22086;-90
2023/01/03 21:24:05;;;;;;;126.82;65.67;;;;;;;4.24;100.00;100318.31;4075949;84;21028;-91
2023/01/03 21:30:08;;;;;;;110.00;62.08;;;;;;;4.25;100.00;100316.39;4073830;85;21585;-90
2023/01/03 21:36:16;;;;;;;116.55;61.42;;;;;;;4.20;100.00;100312.42;4076774;84;20993;-91
2023/01/03 21:48:37;;;;;;;111.35;59.45;;;;;;;4.14;100.00;100309.56;4075203;84;21056;-90
2023/01/03 21:54:38;;;;;;;97.17;54.77;;;;;;;4.07;100.00;100318.09;4073198;85;21093;-91
2023/01/03 22:00:40;;;;;;;110.75;59.08;;;;;;;4.08;100.00;100328.37;4084542;85;21093;-90
2023/01/03 22:06:41;;;;;;;105.80;55.73;;;;;;;4.00;100.00;100338.55;4082951;84;21009;-90
2023/01/03 22:13:00;;;;;;;111.60;56.42;;;;;;;4.00;100.00;100340.72;4071616;85;21632;-90
2023/01/03 22:19:01;;;;;;;112.32;55.15;;;;;;;3.99;100.00;100342.37;4015386;87;21104;-91
2023/01/03 22:25:03;;;;;;;106.22;54.40;;;;;;;3.92;100.00;100350.08;4004790;86;21079;-90
2023/01/03 22:31:11;;;;;;;108.30;53.75;;;;;;;3.89;100.00;100350.67;4034574;85;20980;-91
2023/01/03 22:37:15;;;;;;;101.42;52.60;;;;;;;3.87;100.00;100351.55;4032888;87;21024;-90
2023/01/03 22:43:16;;;;;;;97.05;48.02;;;;;;;3.86;100.00;100352.63;4032804;87;21042;-91
2023/01/03 22:49:17;;;;;;;101.47;49.73;;;;;;;3.81;100.00;100356.77;4024462;87;21027;-90
2023/01/03 22:55:19;;;;;;;103.10;52.08;;;;;;;3.81;100.00;100358.13;4027971;85;21500;-91
2023/01/03 23:01:26;;;;;;;102.00;50.40;;;;;;;3.77;100.00;100349.00;3976318;87;20995;-90
2023/01/03 23:07:25;;;;;;;100.18;49.23;;;;;;;3.76;100.00;100355.53;4032555;85;21063;-90
2023/01/03 23:13:26;;;;;;;101.82;52.20;;;;;;;3.70;100.00;100345.86;4053910;85;21891;-90
2023/01/03 23:19:28;;;;;;;103.38;51.85;;;;;;;3.68;100.00;100344.80;4099917;84;21034;-90
2023/01/03 23:25:30;;;;;;;113.22;53.55;;;;;;;3.57;100.00;100342.58;4083038;84;21015;-90
2023/01/03 23:31:31;;;;;;;104.23;53.42;;;;;;;3.42;100.00;100336.05;4083100;85;21522;-91
2023/01/03 23:37:33;;;;;;;100.25;52.48;;;;;;;3.28;100.00;100337.36;4100906;85;20992;-90
2023/01/03 23:43:35;;;;;;;104.40;53.60;;;;;;;3.19;100.00;100335.86;4084338;85;21058;-90
2023/01/03 23:49:37;;;;;;;100.75;51.88;;;;;;;3.10;100.00;100333.56;4086435;84;21069;-90
2023/01/03 23:55:38;;;;;;;101.05;50.15;;;;;;;2.98;100.00;100341.33;4092512;85;21082;-89
